METAR UND TAF INFORMATION

METAR FOR LTBS
ADDS - METARS form results

(0547 UTC 26 June 2022)
Data provider http://aviationweather.gov/metar/data/
 
METAR text: LTBS 260520Z 36005KT 320V020 CAVOK 28/12 Q1009 NOSIG RMK RWY19 36004KT 320V020 SKC
Conditions at: LTBS (DALAMAN (COMMUNE, TR) observed 0520 UTC 26 June 2022
Temperature: 28.0°C (82°F)
Dewpoint: 12.0°C (54°F) [RH = 37%]
Pressure (altimeter): 29.79 inches Hg (1009.0 mb)
Winds: from the N (360 degrees) at 6 MPH (5 knots; 2.6 m/s)
Visibility: 6 or more miles (10+ km)
Ceiling: ceiling and visibility are OK
Clouds: unknown
Weather: no significant weather observed at this time

METAR text: LTBS 260450Z 01006KT CAVOK 27/12 Q1009 NOSIG RMK RWY19 02007KT SKC
Conditions at: LTBS (DALAMAN (COMMUNE, TR) observed 0450 UTC 26 June 2022
Temperature: 27.0°C (81°F)
Dewpoint: 12.0°C (54°F) [RH = 39%]
Pressure (altimeter): 29.79 inches Hg (1009.0 mb)
Winds: from the N (10 degrees) at 7 MPH (6 knots; 3.1 m/s)
Visibility: 6 or more miles (10+ km)
Ceiling: ceiling and visibility are OK
Clouds: unknown
Weather: no significant weather observed at this time

Forecast for: LTBS (DALAMAN (COMMUNE, TR)
Text: TAF LTBS 260440Z 2606/2706 35009KT CAVOK
Forecast period: 0600 UTC 26 June 2022 to 0600 UTC 27 June 2022
Forecast type: FROM: standard forecast or significant change
Winds: from the N (350 degrees) at 10 MPH (9 knots; 4.6 m/s)
Visibility: 6 or more miles (10+ km)
Ceiling: unknown
Clouds: missing
Weather: NSW  (no significant weather)
Text: BECMG 2606/2608 24014KT FEW030
Forecast period: 0600 to 1400 UTC 26 June 2022
Forecast type: BECOMING: Conditions expected to become as follows by 0800 UTC 26 June 2022
Winds: from the WSW (240 degrees) at 16 MPH (14 knots; 7.2 m/s)
Visibility: 6 or more miles (10+ km)
Ceiling: at least 12,000 feet AGL
Clouds: few clouds at 3000 feet AGL
Weather: NSW  (no significant weather)
Text: BECMG 2614/2616 34009KT CAVOK
Forecast period: 1400 UTC 26 June 2022 to 0600 UTC 27 June 2022
Forecast type: BECOMING: Conditions expected to become as follows by 1600 UTC 26 June 2022
Winds: from the NNW (340 degrees) at 10 MPH (9 knots; 4.6 m/s)
Visibility: 6 or more miles (10+ km)
Ceiling: unknown
Clouds: missing
Weather: NSW  (no significant weather)

 FLUGHAFENKARTE

 RUNWAY INFORMATION
Runway 01 Runway length 9842 ft Runway width 148 ft
Runway elevation 10 ft Runway displaced threshold 0 ft Runway heading 15
Runway 19 Runway length 9842 ft Runway width 148 ft
Runway elevation 20 ft Runway displaced threshold 0 ft Runway heading 195

 AIRPORT FREQUENCIES
Type APP Name APP Frequency 119.225 MHZ
Type ATIS Name ATIS Frequency 127.35 MHZ
Type GND Name GND Frequency 121.9 MHZ
Type TWR Name TWR Frequency 118.5 MHZ

 AIRPORT NEAR NAVIGATION AIDS
Type TACAN Name Dalaman Frequency 115300 KHZ
Type VOR-DME Name Dalaman Frequency 114700 KHZ
Type NDB Name Dalaman Frequency 346 KHZ